Kirchberg-Wetter.de


Hier erfahren Sie, wie das Wetter wird...


WebCam am Fuchsberg more information WebCam am Fuchsberg


Thunder radar more information blitzortung!


Rain radar more information rain snow radar


Besuchen Sie unsere anderen Wetter Stationen:

Template documentation
and downloads

And another site



Es ist keine erhöhte Aufmerksamkeit aufgrund des Wetters notwendig.    Es gibt keine Warnungen.

METAR-Meldungen aus der Umgebung

   
EHVK - Volkel Rnlafb, Netherlands
Entfernung von der Station bis: SW 18 km
Aktualisierung: 02-07-2020 17:25
Bewölkt  
Bewölkt  
   Wind: Westen 16.7 km/h
Wind: Westen 16.7 km/h
Temperatur: 20°C
Taupunkt: 12°C
Luftfeuchte: 60%
Luftdruck: 1011 hPa
Bewölkt: Bewölkt
Sichtbarkeit: More than 10 km
Bewölkung: Stark bewölkt 3300 ft,
Stark bewölkt 3900 ft,
Bewölkt 4700 ft
EHVK 021525Z AUTO 27009KT 230V330 9999 BKN033 BKN039 OVC047 20/12 Q1011 BLU
EDLV - Niederrhein, Germany
Entfernung von der Station bis: SO 25 km
Aktualisierung: 02-07-2020 17:20
Klar  
Klar  
   Wind: Westen 22.2 km/h
Wind: Westen 22.2 km/h
Temperatur: 21°C
Taupunkt: 11°C
Luftfeuchte: 53%
Luftdruck: 1011 hPa
Sichtbarkeit: More than 10 km
Bewölkung: Klar
EDLV 021520Z 28012KT 250V310 CAVOK 21/11 Q1011
EHDL - Deelen Rnlafb, Netherlands
Entfernung von der Station bis: N 35 km
Aktualisierung: 02-07-2020 17:25
Stark bewölkt  
Stark bewölkt  
   Wind: Westen 18.5 km/h
Wind: Westen 18.5 km/h
Temperatur: 20°C
Taupunkt: 11°C
Luftfeuchte: 56%
Luftdruck: 1011 hPa
Bewölkt: Stark bewölkt
Sichtbarkeit: More than 10 km
Bewölkung: Teilweise bewölkt 4100 ft,
Teilweise bewölkt 4500 ft,
Stark bewölkt 7800 ft
EHDL 021525Z AUTO 27010KT 200V340 9999 SCT041 SCT045 BKN078 20/11 Q1011 BLU
EHEH - Eindhoven Rnlafb, Netherlands
Entfernung von der Station bis: SW 48 km
Aktualisierung: 02-07-2020 17:25
Bewölkt  
Bewölkt  
   Wind: Westen 20.4 km/h
Wind: Westen 20.4 km/h
Temperatur: 19°C
Taupunkt: 11°C
Luftfeuchte: 60%
Luftdruck: 1012 hPa
Bewölkt: Bewölkt
Sichtbarkeit: More than 10 km
Bewölkung: Bewölkt 7600 ft
EHEH 021525Z AUTO 26011KT 230V320 9999 OVC076 19/11 Q1012 BLU 24010KT 9999 SCT032 SCT070 TEMPO 27013G23KT SCT022CB BKN030
EHGR - Gilze-Rijen Rnla, Netherlands
Entfernung von der Station bis: WSW 70 km
Aktualisierung: 02-07-2020 17:25
Bewölkt  
Bewölkt  
   Wind: Westen 20.4 km/h
Wind: Westen 20.4 km/h
Temperatur: 20°C
Taupunkt: 11°C
Luftfeuchte: 56%
Luftdruck: 1012 hPa
Bewölkt: Bewölkt
Sichtbarkeit: More than 10 km
Bewölkung: leicht bewölkt 7600 ft,
Bewölkt 8300 ft
EHGR 021525Z AUTO 27011KT 220V290 9999 FEW076 OVC083 20/11 Q1012 BLU
EBBL - Kleine-Brogel(Ba, Belgium
Entfernung von der Station bis: SSW 71 km
Aktualisierung: 02-07-2020 17:38
Teilweise bewölkt  
Teilweise bewölkt  
   Wind: Westen 16.7 km/h
Wind: Westen 16.7 km/h
Temperatur: 20°C
Taupunkt: 13°C
Luftfeuchte: 64%
Luftdruck: 1012 hPa
Bewölkt: Teilweise bewölkt
Sichtbarkeit: More than 10 km
Bewölkung: leicht bewölkt 3000 ft,
Teilweise bewölkt 8000 ft
EBBL 021538Z 27009KT 9999 FEW030 SCT080 20/13 Q1012 BLU FCST CANCEL

Script entwickelt von  Saratoga-weather.org Angepasst für das Template von  Weerstation Leuven

Sie finden unser Wetter-Infos auch auf:

Weather Underground

WeatherlinkIP

Wetternetz-Sachsen

Von uns verwendete Ausrüstung:

Wetterstation
Davis Vantage Pro2 Plus

Wetterprogramm
Meteobridge

WetterComputer
TP-Link TL-MR3020

Davis Vantage Pro2 Plus

Meteobridge

TP-Link TL-MR3020